Time;durP1;ratioP1;P1;durP2;ratioP2;P2;SDS_P1;SDS_P2;PMS_P1;PMS_P2;Temp;Humidity;BMP_temperature;BMP_pressure;BME280_temperature;BME280_humidity;BME280_pressure;Samples;Min_cycle;Max_cycle;Signal;HPM_P1;HPM_P2
2023/04/03 00:03:26;;;;;;;9.10;4.88;;;;;;;0.55;100.00;103291.91;10347257;28;20055;-77
2023/04/03 00:08:22;;;;;;;10.55;5.07;;;;;;;0.53;100.00;103293.13;10344089;28;20523;-74
2023/04/03 00:13:19;;;;;;;7.10;4.93;;;;;;;0.46;100.00;103297.56;10342966;28;20136;-76
2023/04/03 00:18:15;;;;;;;9.13;4.95;;;;;;;0.40;100.00;103300.00;10336153;28;20565;-77
2023/04/03 00:23:12;;;;;;;15.00;6.20;;;;;;;0.34;100.00;103299.91;10345592;28;20068;-74
2023/04/03 00:28:08;;;;;;;9.93;5.22;;;;;;;0.37;100.00;103310.28;10340098;28;20123;-76
2023/04/03 00:33:05;;;;;;;7.40;5.45;;;;;;;0.37;100.00;103308.47;10337886;28;20036;-74
2023/04/03 00:38:01;;;;;;;10.05;5.35;;;;;;;0.26;100.00;103306.22;10336343;28;20053;-77
2023/04/03 00:42:59;;;;;;;7.30;5.10;;;;;;;0.28;100.00;103306.88;10347704;28;20040;-74
2023/04/03 00:47:56;;;;;;;11.00;6.07;;;;;;;0.23;100.00;103308.44;10347888;27;20080;-74
2023/04/03 00:52:54;;;;;;;11.65;6.60;;;;;;;0.14;100.00;103311.22;10340485;28;20044;-74
2023/04/03 00:57:52;;;;;;;7.95;5.15;;;;;;;0.06;100.00;103316.69;10332914;28;20051;-73
2023/04/03 01:08:18;;;;;;;10.45;6.20;;;;;;;-0.06;100.00;103326.22;11073710;23;20045;-69
2023/04/03 01:13:22;;;;;;;11.30;5.53;;;;;;;-0.06;100.00;103321.66;10213371;28;20050;-73
2023/04/03 01:18:19;;;;;;;7.78;5.55;;;;;;;0.03;100.00;103311.69;10208126;28;20103;-72
2023/04/03 01:23:31;;;;;;;9.15;5.45;;;;;;;-0.07;100.00;103316.47;10219136;28;20228;-73
2023/04/03 01:28:31;;;;;;;13.98;6.00;;;;;;;-0.14;100.00;103308.31;10209744;28;20056;-70
2023/04/03 01:33:27;;;;;;;9.13;5.20;;;;;;;-0.20;100.00;103310.91;10217630;28;20056;-70
2023/04/03 01:38:24;;;;;;;8.15;5.80;;;;;;;-0.28;100.00;103312.66;10218166;28;20490;-72
2023/04/03 01:43:20;;;;;;;17.08;6.40;;;;;;;-0.30;100.00;103320.06;10215764;28;20045;-72
2023/04/03 01:48:17;;;;;;;9.23;5.53;;;;;;;-0.34;100.00;103307.16;10216963;28;20507;-72
2023/04/03 01:53:13;;;;;;;8.10;5.38;;;;;;;-0.37;100.00;103313.72;10213532;28;20744;-72
2023/04/03 01:58:10;;;;;;;10.40;6.50;;;;;;;-0.42;100.00;103321.47;10216384;28;20050;-72
2023/04/03 02:03:06;;;;;;;13.32;5.68;;;;;;;-0.44;100.00;103328.91;10206380;28;20061;-72
2023/04/03 02:08:03;;;;;;;8.55;5.43;;;;;;;-0.45;100.00;103332.59;10231246;28;20496;-72
2023/04/03 02:13:00;;;;;;;13.43;5.75;;;;;;;-0.49;100.00;103325.91;10211942;28;20053;-75
2023/04/03 02:17:56;;;;;;;10.68;6.22;;;;;;;-0.38;100.00;103325.47;10207323;28;20148;-72
2023/04/03 02:22:53;;;;;;;10.98;5.53;;;;;;;-0.40;100.00;103324.81;10199354;28;20503;-72
2023/04/03 02:27:49;;;;;;;6.80;5.45;;;;;;;-0.43;100.00;103327.88;10211640;28;20053;-74
2023/04/03 02:32:46;;;;;;;8.35;5.60;;;;;;;-0.49;100.00;103331.28;10208279;28;20438;-74
2023/04/03 02:37:43;;;;;;;8.52;6.03;;;;;;;-0.40;100.00;103335.56;10220089;28;20046;-72
2023/04/03 02:42:40;;;;;;;9.57;5.80;;;;;;;-0.34;100.00;103334.88;10219327;28;20060;-73
2023/04/03 02:47:36;;;;;;;13.93;6.25;;;;;;;-0.47;100.00;103340.00;10215691;28;20049;-71
2023/04/03 02:52:33;;;;;;;9.38;5.78;;;;;;;-0.55;100.00;103337.38;10211385;28;20054;-73
2023/04/03 02:57:29;;;;;;;9.02;5.30;;;;;;;-0.57;100.00;103334.03;10207998;28;20042;-72
2023/04/03 03:02:26;;;;;;;6.25;5.35;;;;;;;-0.54;100.00;103333.69;10217434;28;20092;-71
2023/04/03 03:07:22;;;;;;;7.75;5.75;;;;;;;-0.66;100.00;103336.78;10222363;28;20685;-74
2023/04/03 03:12:21;;;;;;;9.15;5.80;;;;;;;-0.73;100.00;103341.19;10210505;28;20124;-71
2023/04/03 03:17:17;;;;;;;9.38;6.38;;;;;;;-0.66;100.00;103347.53;10222628;28;20514;-71
2023/04/03 03:22:14;;;;;;;8.68;5.65;;;;;;;-0.71;100.00;103344.53;10201216;28;20052;-72
2023/04/03 03:27:12;;;;;;;11.60;6.45;;;;;;;-0.80;100.00;103337.53;10215407;28;20080;-72
2023/04/03 03:32:08;;;;;;;11.27;5.88;;;;;;;-0.78;100.00;103343.59;10219514;28;20455;-73
2023/04/03 03:37:05;;;;;;;13.10;6.35;;;;;;;-0.83;100.00;103332.53;10209006;28;20045;-69
2023/04/03 03:42:01;;;;;;;7.88;5.75;;;;;;;-0.83;100.00;103340.59;10223829;28;20403;-70
2023/04/03 03:46:58;;;;;;;6.32;5.72;;;;;;;-0.94;100.00;103338.31;10200899;28;20081;-71
2023/04/03 03:51:55;;;;;;;11.68;6.25;;;;;;;-0.88;100.00;103342.97;10223491;28;20391;-71
2023/04/03 03:56:51;;;;;;;10.10;6.40;;;;;;;-0.86;100.00;103351.66;10221153;28;20049;-70
2023/04/03 04:01:49;;;;;;;9.90;5.72;;;;;;;-0.88;100.00;103343.81;10213905;28;20057;-69
2023/04/03 04:06:45;;;;;;;11.27;6.85;;;;;;;-0.91;100.00;103348.69;10215786;28;20038;-69
2023/04/03 04:11:42;;;;;;;9.02;6.25;;;;;;;-0.90;100.00;103345.00;10218226;28;20055;-70
2023/04/03 04:16:39;;;;;;;8.60;6.32;;;;;;;-0.94;100.00;103341.00;10224240;28;20530;-70
2023/04/03 04:21:35;;;;;;;13.55;6.68;;;;;;;-0.98;100.00;103347.72;10221867;28;20515;-70
2023/04/03 04:26:32;;;;;;;11.07;6.72;;;;;;;-1.06;100.00;103349.44;10205876;28;20053;-70
2023/04/03 04:31:28;;;;;;;12.20;7.22;;;;;;;-1.01;100.00;103353.44;10213397;28;20072;-70
2023/04/03 04:36:25;;;;;;;10.70;7.40;;;;;;;-1.09;100.00;103357.00;10219005;28;20417;-70
2023/04/03 04:41:22;;;;;;;11.32;7.82;;;;;;;-1.12;100.00;103360.88;10220826;28;20042;-69
2023/04/03 04:46:19;;;;;;;10.85;8.38;;;;;;;-1.13;100.00;103367.25;10201567;28;20500;-70
2023/04/03 04:51:16;;;;;;;9.18;8.32;;;;;;;-1.03;100.00;103376.97;10201274;28;20087;-69
2023/04/03 04:56:12;;;;;;;9.00;8.10;;;;;;;-0.98;100.00;103386.16;10213106;28;20053;-70
2023/04/03 05:01:10;;;;;;;8.88;8.10;;;;;;;-0.97;100.00;103381.63;10222360;28;20679;-69
2023/04/03 05:06:07;;;;;;;11.50;8.68;;;;;;;-0.90;100.00;103391.50;10208556;28;20045;-69
2023/04/03 05:11:03;;;;;;;12.57;8.40;;;;;;;-0.84;100.00;103398.00;10227218;28;20176;-70
2023/04/03 05:16:00;;;;;;;9.40;8.50;;;;;;;-0.80;100.00;103398.50;10218002;28;20049;-69
2023/04/03 05:20:57;;;;;;;17.15;9.93;;;;;;;-0.84;100.00;103398.00;10227749;28;20061;-69
2023/04/03 05:25:54;;;;;;;11.23;8.73;;;;;;;-0.81;100.00;103407.56;10212230;28;20057;-69
2023/04/03 05:30:55;;;;;;;10.27;9.13;;;;;;;-0.82;100.00;103406.72;10210393;28;20069;-69
2023/04/03 05:35:53;;;;;;;9.83;8.30;;;;;;;-0.74;100.00;103403.16;10221803;28;20050;-69
2023/04/03 05:40:49;;;;;;;13.50;8.93;;;;;;;-0.83;100.00;103405.06;10216607;28;20045;-69
2023/04/03 05:45:47;;;;;;;10.30;8.43;;;;;;;-0.73;100.00;103421.78;10207593;28;20411;-69
2023/04/03 05:50:44;;;;;;;11.70;8.73;;;;;;;-0.74;100.00;103424.66;10213968;28;20050;-69
2023/04/03 05:55:40;;;;;;;10.93;9.38;;;;;;;-0.68;100.00;103419.41;10204139;28;20046;-70
2023/04/03 06:00:36;;;;;;;11.95;8.88;;;;;;;-0.65;100.00;103424.44;10222324;28;20049;-69
2023/04/03 06:05:33;;;;;;;12.85;8.75;;;;;;;-0.64;100.00;103418.06;10220159;28;20057;-70
2023/04/03 06:10:30;;;;;;;12.27;8.90;;;;;;;-0.58;100.00;103421.03;10216888;28;20124;-69
2023/04/03 06:15:27;;;;;;;13.55;9.20;;;;;;;-0.51;100.00;103422.88;10210816;28;20045;-70
2023/04/03 06:20:24;;;;;;;11.63;9.60;;;;;;;-0.41;100.00;103429.88;10223669;28;20128;-69
2023/04/03 06:25:21;;;;;;;12.95;8.50;;;;;;;-0.32;100.00;103424.25;10225913;28;20060;-68
2023/04/03 06:30:17;;;;;;;10.15;9.05;;;;;;;-0.21;100.00;103436.44;10210078;28;20443;-69
2023/04/03 06:35:14;;;;;;;12.20;9.00;;;;;;;-0.15;100.00;103435.72;10224103;28;20076;-69
2023/04/03 06:40:22;;;;;;;9.75;8.52;;;;;;;-0.02;100.00;103429.75;10222029;28;20038;-70
2023/04/03 06:45:19;;;;;;;12.98;8.57;;;;;;;0.07;100.00;103436.75;10215417;28;20482;-69
2023/04/03 06:50:15;;;;;;;16.77;8.15;;;;;;;0.22;100.00;103435.94;10214645;28;20045;-70
2023/04/03 06:55:12;;;;;;;11.55;8.13;;;;;;;0.45;100.00;103441.28;10197969;28;20057;-69
2023/04/03 07:00:10;;;;;;;15.48;8.07;;;;;;;0.54;100.00;103446.41;10225123;28;20076;-69
2023/04/03 07:05:08;;;;;;;12.77;6.75;;;;;;;0.85;100.00;103448.09;10220242;28;20543;-68
2023/04/03 07:10:06;;;;;;;8.00;6.35;;;;;;;1.04;100.00;103447.53;10213017;28;20088;-70
2023/04/03 07:15:04;;;;;;;7.15;5.60;;;;;;;1.26;100.00;103447.59;10201190;28;20054;-68
2023/04/03 07:20:00;;;;;;;7.88;6.40;;;;;;;1.51;100.00;103449.94;10224932;28;20045;-70
2023/04/03 07:24:56;;;;;;;9.85;6.50;;;;;;;1.66;100.00;103453.44;10220035;28;20058;-69
2023/04/03 07:29:53;;;;;;;6.65;5.95;;;;;;;1.84;100.00;103459.25;10216199;28;20069;-69
2023/04/03 07:34:51;;;;;;;8.93;5.15;;;;;;;2.00;100.00;103457.34;10207317;28;20056;-69
2023/04/03 07:39:48;;;;;;;9.48;6.07;;;;;;;2.13;100.00;103448.50;10218949;28;20064;-68
2023/04/03 07:44:45;;;;;;;7.85;5.53;;;;;;;2.29;100.00;103446.38;10209408;28;20046;-69
2023/04/03 07:49:43;;;;;;;7.40;5.70;;;;;;;2.54;100.00;103443.25;10208848;28;20096;-69
2023/04/03 07:54:40;;;;;;;12.52;6.50;;;;;;;2.71;100.00;103439.19;10198341;28;20081;-69
2023/04/03 07:59:36;;;;;;;7.40;5.70;;;;;;;2.85;100.00;103437.38;10218966;28;20073;-70
2023/04/03 08:04:33;;;;;;;5.28;4.80;;;;;;;2.98;100.00;103439.34;10214894;28;20061;-69
2023/04/03 08:09:29;;;;;;;6.25;5.10;;;;;;;3.12;100.00;103441.06;10208686;28;20044;-67
2023/04/03 08:14:26;;;;;;;13.65;6.38;;;;;;;3.23;100.00;103441.56;10206612;28;20068;-67
2023/04/03 08:19:22;;;;;;;6.00;5.40;;;;;;;3.40;100.00;103433.91;10212522;28;20081;-67
2023/04/03 08:24:22;;;;;;;7.47;5.63;;;;;;;3.40;100.00;103433.91;10227711;28;20071;-69
2023/04/03 08:29:18;;;;;;;7.75;5.38;;;;;;;3.72;100.00;103435.03;10232222;28;20132;-69
2023/04/03 08:34:15;;;;;;;6.75;5.60;;;;;;;3.90;100.00;103432.56;10224751;28;20045;-69
2023/04/03 08:39:12;;;;;;;7.28;5.50;;;;;;;3.97;100.00;103432.59;10223855;28;20406;-70
2023/04/03 08:44:16;;;;;;;7.10;5.40;;;;;;;4.19;100.00;103430.50;10223109;28;20092;-67
2023/04/03 08:49:24;;;;;;;7.13;5.30;;;;;;;4.27;100.00;103432.16;10215684;28;20048;-67
2023/04/03 08:54:28;;;;;;;8.40;6.57;;;;;;;4.29;100.00;103419.25;10213203;28;20045;-68
2023/04/03 08:59:29;;;;;;;7.13;5.20;;;;;;;4.37;100.00;103422.59;10219279;28;20108;-67
2023/04/03 09:04:27;;;;;;;5.28;4.78;;;;;;;4.62;100.00;103421.94;10239842;28;20048;-68
2023/04/03 09:09:41;;;;;;;5.45;4.95;;;;;;;4.71;100.00;103415.25;10213318;28;20128;-68
2023/04/03 09:14:40;;;;;;;5.85;5.10;;;;;;;4.90;100.00;103418.09;10216930;28;20041;-67
2023/04/03 09:20:19;;;;;;;5.82;4.45;;;;;;;4.97;100.00;103424.34;10221907;28;20069;-67
2023/04/03 09:25:21;;;;;;;6.32;5.18;;;;;;;5.16;100.00;103404.44;10217428;28;20045;-67
2023/04/03 09:30:23;;;;;;;6.20;4.35;;;;;;;5.54;100.00;103409.03;10216439;28;20049;-67
2023/04/03 09:35:28;;;;;;;6.00;5.38;;;;;;;5.57;100.00;103405.06;10239050;28;20428;-68
2023/04/03 09:40:45;;;;;;;6.10;5.10;;;;;;;5.69;100.00;103409.56;10219350;28;20049;-68
2023/04/03 09:45:42;;;;;;;6.00;5.38;;;;;;;5.94;100.00;103399.78;10210931;28;20129;-67
2023/04/03 09:50:59;;;;;;;7.72;4.85;;;;;;;6.18;100.00;103392.75;10198063;28;20129;-68
2023/04/03 09:55:56;;;;;;;5.20;4.70;;;;;;;7.07;100.00;103398.69;10204818;28;20057;-68
2023/04/03 10:00:58;;;;;;;5.35;4.85;;;;;;;7.60;100.00;103387.06;10207070;28;20136;-67
2023/04/03 10:05:55;;;;;;;5.47;4.72;;;;;;;7.93;89.08;103381.09;10223594;28;20053;-68
2023/04/03 10:11:16;;;;;;;6.95;5.20;;;;;;;8.52;88.95;103378.44;10209213;28;20066;-67
2023/04/03 10:16:17;;;;;;;5.38;4.90;;;;;;;9.24;78.48;103369.00;10200190;28;20045;-67
2023/04/03 10:21:46;;;;;;;7.15;5.38;;;;;;;9.47;73.23;103374.34;10210660;28;20047;-67
2023/04/03 10:27:02;;;;;;;6.05;5.00;;;;;;;8.56;66.87;103363.25;10223308;28;20068;-67
2023/04/03 10:32:25;;;;;;;5.60;5.10;;;;;;;9.36;67.35;103361.56;10217470;28;20451;-67
2023/04/03 10:37:49;;;;;;;6.13;5.53;;;;;;;10.15;60.27;103360.69;10229968;28;20353;-68
2023/04/03 10:43:26;;;;;;;5.90;5.25;;;;;;;11.90;52.86;103356.16;10216894;28;20048;-67
2023/04/03 10:48:39;;;;;;;6.60;6.03;;;;;;;13.53;48.78;103349.75;10181064;28;20121;-68
2023/04/03 10:53:45;;;;;;;5.82;5.32;;;;;;;12.50;59.34;103342.28;10215667;28;20077;-68
2023/04/03 10:58:57;;;;;;;5.97;5.47;;;;;;;14.05;50.12;103343.13;10197071;28;20054;-66
2023/04/03 11:03:59;;;;;;;5.90;5.40;;;;;;;11.72;52.39;103345.56;10218501;28;20058;-68
2023/04/03 11:09:27;;;;;;;5.88;5.40;;;;;;;10.78;62.49;103336.69;10223169;28;20091;-68
2023/04/03 11:14:34;;;;;;;6.63;5.97;;;;;;;11.62;70.65;103324.38;10219920;28;20237;-68
2023/04/03 11:19:49;;;;;;;6.20;5.47;;;;;;;11.05;59.07;103312.09;10220588;28;20044;-68
2023/04/03 11:25:06;;;;;;;6.70;5.88;;;;;;;11.39;70.42;103309.13;10207433;28;20041;-68
2023/04/03 11:30:07;;;;;;;6.68;6.18;;;;;;;12.97;59.63;103305.66;10217905;28;20048;-68
2023/04/03 11:35:07;;;;;;;6.30;5.63;;;;;;;10.34;69.60;103301.09;10225751;28;20077;-68
2023/04/03 11:40:15;;;;;;;6.03;5.53;;;;;;;9.47;79.52;103303.34;10222237;28;20659;-68
2023/04/03 11:45:26;;;;;;;6.22;5.63;;;;;;;8.60;90.82;103298.97;10205508;28;20045;-68
2023/04/03 11:50:41;;;;;;;5.47;4.97;;;;;;;8.50;89.13;103301.47;10218068;28;20045;-68
2023/04/03 11:55:45;;;;;;;7.07;5.63;;;;;;;9.14;88.11;103293.16;10215936;28;20165;-68
2023/04/03 12:00:50;;;;;;;6.10;5.57;;;;;;;12.27;65.33;103277.69;10209267;28;20046;-68
2023/04/03 12:05:47;;;;;;;7.00;6.30;;;;;;;11.27;70.97;103281.06;10208990;28;20052;-69
2023/04/03 12:11:09;;;;;;;6.00;5.50;;;;;;;13.87;54.96;103273.00;10213914;28;20551;-68
2023/04/03 12:16:18;;;;;;;6.13;5.53;;;;;;;15.16;46.45;103259.50;10214583;28;20563;-68
2023/04/03 12:21:21;;;;;;;6.47;5.85;;;;;;;16.40;43.83;103259.94;10226927;28;20045;-68
2023/04/03 12:26:17;;;;;;;6.60;5.78;;;;;;;16.85;40.61;103249.41;10219302;28;20070;-69
2023/04/03 12:31:14;;;;;;;7.72;6.30;;;;;;;17.91;34.81;103249.84;10226551;28;20419;-69
2023/04/03 12:36:18;;;;;;;6.68;6.07;;;;;;;16.60;34.55;103251.38;10222679;28;20160;-68
2023/04/03 12:41:27;;;;;;;6.35;5.85;;;;;;;17.76;32.97;103246.22;10213490;28;20056;-69
2023/04/03 12:46:32;;;;;;;7.35;5.88;;;;;;;18.86;30.02;103244.50;10216209;28;20080;-68
2023/04/03 12:51:39;;;;;;;6.88;6.05;;;;;;;16.87;32.96;103235.28;10214528;28;20091;-69
2023/04/03 12:56:36;;;;;;;6.13;5.63;;;;;;;16.15;38.13;103236.22;10210887;28;20747;-69
2023/04/03 13:01:32;;;;;;;6.72;5.75;;;;;;;18.45;31.74;103235.16;10213276;28;20046;-68
2023/04/03 13:06:38;;;;;;;6.78;6.18;;;;;;;14.16;35.32;103246.81;10209444;28;20048;-68
2023/04/03 13:11:40;;;;;;;6.10;5.50;;;;;;;17.24;32.46;103231.63;10199819;28;20660;-68
2023/04/03 13:16:41;;;;;;;6.68;5.65;;;;;;;18.44;32.39;103221.59;10220991;28;20045;-68
2023/04/03 13:21:37;;;;;;;5.63;5.10;;;;;;;15.55;34.79;103233.81;10227445;28;20124;-68
2023/04/03 13:26:34;;;;;;;6.13;5.53;;;;;;;19.23;30.40;103226.66;10211276;28;20095;-68
2023/04/03 13:31:34;;;;;;;6.45;5.85;;;;;;;18.37;32.39;103221.19;10222097;28;20042;-68
2023/04/03 13:36:40;;;;;;;5.95;5.35;;;;;;;18.97;27.41;103225.69;10208721;28;20503;-69
2023/04/03 13:41:39;;;;;;;6.18;5.57;;;;;;;18.22;31.84;103220.41;10208483;28;20072;-68
2023/04/03 13:46:35;;;;;;;6.32;5.72;;;;;;;18.79;29.72;103216.41;10216964;28;20609;-69
2023/04/03 13:51:32;;;;;;;6.68;5.65;;;;;;;20.22;26.45;103207.03;10210137;28;20085;-68
2023/04/03 13:56:41;;;;;;;8.13;5.90;;;;;;;19.00;27.84;103200.91;10216395;28;20052;-68
2023/04/03 14:01:54;;;;;;;5.57;5.18;;;;;;;18.53;29.69;103203.09;10227323;28;20079;-69
2023/04/03 14:06:52;;;;;;;5.93;5.43;;;;;;;18.14;28.67;103195.38;10219195;28;20496;-68
2023/04/03 14:11:51;;;;;;;6.10;5.20;;;;;;;18.61;27.79;103191.28;10212831;28;20045;-69
2023/04/03 14:16:53;;;;;;;6.57;5.97;;;;;;;19.34;26.52;103188.41;10215744;28;20092;-67
2023/04/03 14:21:50;;;;;;;6.70;6.10;;;;;;;20.11;26.88;103187.09;10218835;28;20041;-69
2023/04/03 14:26:50;;;;;;;6.63;6.03;;;;;;;18.61;29.70;103174.69;10232957;28;20046;-68
2023/04/03 14:31:47;;;;;;;6.82;6.07;;;;;;;18.29;29.65;103179.25;10226014;28;20041;-68
2023/04/03 14:36:44;;;;;;;5.78;5.28;;;;;;;17.78;28.44;103171.19;10211299;28;20523;-68
2023/04/03 14:41:41;;;;;;;6.68;5.97;;;;;;;18.66;30.36;103174.53;10219065;28;20396;-68
2023/04/03 14:46:42;;;;;;;6.25;5.72;;;;;;;18.99;29.04;103171.56;10220193;28;20049;-69
2023/04/03 14:51:52;;;;;;;6.35;5.75;;;;;;;18.68;28.57;103166.75;10215930;28;20049;-68
2023/04/03 14:56:49;;;;;;;6.93;6.32;;;;;;;17.49;29.16;103168.72;10219983;28;20467;-68
2023/04/03 15:01:46;;;;;;;7.43;6.82;;;;;;;16.74;30.67;103160.28;10219058;28;20045;-68
2023/04/03 15:06:43;;;;;;;6.05;5.45;;;;;;;15.44;37.34;103177.13;10211873;28;20515;-68
2023/04/03 15:11:39;;;;;;;6.43;5.65;;;;;;;14.51;38.02;103168.78;10194414;28;20132;-67
2023/04/03 15:16:36;;;;;;;6.38;5.32;;;;;;;14.35;40.43;103168.03;10223884;28;20046;-67
2023/04/03 15:21:32;;;;;;;7.65;6.15;;;;;;;14.30;36.08;103159.81;10198756;28;20050;-68
2023/04/03 15:26:29;;;;;;;6.60;5.88;;;;;;;16.11;38.25;103158.72;10207471;28;20042;-68
2023/04/03 15:31:25;;;;;;;7.80;5.60;;;;;;;15.09;36.86;103166.16;10211860;28;20568;-68
2023/04/03 15:36:22;;;;;;;6.07;5.07;;;;;;;13.56;40.24;103159.53;10217763;28;20093;-68
2023/04/03 15:41:24;;;;;;;;;;;;;;;12.37;47.01;103168.00;10208906;28;20042;-68
2023/04/03 15:46:21;;;;;;;6.15;5.40;;;;;;;11.76;50.22;103157.59;10203746;28;20386;-68
2023/04/03 15:51:18;;;;;;;6.05;5.40;;;;;;;14.40;41.76;103151.47;10205734;28;20056;-68
2023/04/03 15:56:14;;;;;;;5.85;5.35;;;;;;;15.53;35.97;103136.78;10206701;28;20096;-68
2023/04/03 16:01:11;;;;;;;6.55;5.13;;;;;;;15.53;38.12;103145.06;10205507;28;20049;-68
2023/04/03 16:06:08;;;;;;;6.03;5.25;;;;;;;14.91;38.20;103148.38;10202391;28;20494;-68
2023/04/03 16:11:04;;;;;;;5.90;5.30;;;;;;;12.85;47.10;103152.16;10198193;28;20376;-68
2023/04/03 16:16:01;;;;;;;7.15;5.97;;;;;;;11.94;51.76;103143.44;10210665;28;20076;-68
2023/04/03 16:20:58;;;;;;;5.85;5.25;;;;;;;13.25;54.54;103151.34;10210865;28;20041;-67
2023/04/03 16:25:55;;;;;;;7.22;5.13;;;;;;;12.28;55.00;103151.25;10220835;28;20046;-67
2023/04/03 16:30:52;;;;;;;5.70;5.20;;;;;;;12.87;50.27;103149.16;10221786;28;20061;-67
2023/04/03 16:35:50;;;;;;;6.57;5.90;;;;;;;12.15;52.61;103143.53;10210665;28;20088;-67
2023/04/03 16:40:48;;;;;;;7.93;6.15;;;;;;;12.18;54.74;103148.47;10209255;28;20106;-67
2023/04/03 16:45:44;;;;;;;7.13;5.15;;;;;;;12.03;53.34;103142.94;10220652;28;20072;-68
2023/04/03 16:50:41;;;;;;;9.52;5.40;;;;;;;11.54;59.00;103155.00;10212695;28;20073;-68
2023/04/03 16:55:39;;;;;;;7.75;4.80;;;;;;;11.11;61.29;103145.94;10228167;28;20657;-67
2023/04/03 17:00:36;;;;;;;5.50;4.90;;;;;;;11.27;65.94;103155.09;10216149;28;20045;-68
2023/04/03 17:05:33;;;;;;;8.20;5.40;;;;;;;11.25;61.27;103154.53;10227105;28;20414;-68
2023/04/03 17:10:30;;;;;;;7.38;4.90;;;;;;;11.17;63.06;103153.13;10228018;28;20050;-68
2023/04/03 17:15:26;;;;;;;4.90;4.35;;;;;;;10.24;66.68;103167.78;10220007;28;20420;-68
2023/04/03 17:20:23;;;;;;;5.53;4.75;;;;;;;9.25;76.72;103174.91;10224347;28;20433;-67
2023/04/03 17:25:20;;;;;;;5.93;4.60;;;;;;;7.96;83.72;103167.28;10228732;28;20056;-68
2023/04/03 17:30:16;;;;;;;6.60;4.80;;;;;;;8.10;87.77;103168.69;10218805;28;20074;-68
2023/04/03 17:35:13;;;;;;;5.32;4.82;;;;;;;8.10;87.77;103168.69;10229271;28;20053;-68
2023/04/03 17:40:13;;;;;;;7.07;5.10;;;;;;;7.26;82.57;103174.44;10221163;28;20091;-68
2023/04/03 17:45:09;;;;;;;8.10;4.90;;;;;;;7.32;84.66;103165.34;10218090;28;20144;-68
2023/04/03 17:50:07;;;;;;;6.57;5.28;;;;;;;7.10;90.44;103177.84;10207293;28;20053;-68
2023/04/03 17:55:04;;;;;;;8.52;5.03;;;;;;;7.22;88.38;103173.28;10207395;28;20136;-68
2023/04/03 18:00:00;;;;;;;7.32;4.60;;;;;;;6.94;91.79;103182.91;10211212;28;20057;-68
2023/04/03 18:04:57;;;;;;;7.40;4.40;;;;;;;6.60;93.49;103180.91;10196320;28;20081;-67
2023/04/03 18:09:55;;;;;;;6.25;4.28;;;;;;;6.60;92.31;103186.34;10218373;28;20503;-68
2023/04/03 18:14:53;;;;;;;5.45;4.50;;;;;;;6.11;98.53;103189.91;10208678;28;20057;-68
2023/04/03 18:19:50;;;;;;;6.15;4.57;;;;;;;6.21;97.46;103193.97;10213313;28;20045;-67
2023/04/03 18:24:49;;;;;;;9.43;5.57;;;;;;;6.17;100.00;103192.75;10222362;28;20049;-68
2023/04/03 18:29:52;;;;;;;6.22;4.43;;;;;;;5.90;100.00;103198.47;10213600;28;20075;-67
2023/04/03 18:34:50;;;;;;;5.72;4.75;;;;;;;5.48;100.00;103200.97;10207090;28;20096;-68
2023/04/03 18:39:46;;;;;;;7.22;5.28;;;;;;;5.36;100.00;103203.59;10226173;28;20056;-68
2023/04/03 18:44:46;;;;;;;5.60;5.05;;;;;;;5.36;100.00;103197.31;10224268;28;20144;-67
2023/04/03 18:49:43;;;;;;;6.57;5.05;;;;;;;5.36;100.00;103202.72;10215713;28;20046;-68
2023/04/03 18:54:41;;;;;;;8.52;5.70;;;;;;;5.22;100.00;103202.88;10224088;28;20049;-68
2023/04/03 18:59:38;;;;;;;9.20;5.35;;;;;;;5.20;100.00;103210.38;10217839;28;20111;-68
2023/04/03 19:04:35;;;;;;;6.53;4.70;;;;;;;5.00;100.00;103212.41;10221756;28;20136;-68
2023/04/03 19:09:32;;;;;;;5.40;4.90;;;;;;;4.77;100.00;103216.50;10228041;28;20045;-68
2023/04/03 19:14:28;;;;;;;8.15;5.35;;;;;;;4.93;100.00;103208.91;10197857;28;20049;-68
2023/04/03 19:19:25;;;;;;;9.60;5.40;;;;;;;4.83;100.00;103210.22;10221460;28;20077;-68
2023/04/03 19:24:21;;;;;;;8.73;4.95;;;;;;;4.78;100.00;103223.59;10227057;28;20075;-68
2023/04/03 19:29:18;;;;;;;7.03;5.30;;;;;;;4.53;100.00;103209.16;10222365;28;20060;-68
2023/04/03 19:34:14;;;;;;;6.47;4.75;;;;;;;4.49;100.00;103202.50;10221822;28;20076;-68
2023/04/03 19:39:13;;;;;;;6.28;5.43;;;;;;;4.39;100.00;103197.53;10216425;28;20500;-68
2023/04/03 19:44:11;;;;;;;8.32;5.38;;;;;;;4.22;100.00;103198.03;10211553;28;20076;-68
2023/04/03 19:49:09;;;;;;;8.15;5.20;;;;;;;3.91;100.00;103192.50;10215275;28;20041;-68
2023/04/03 19:54:05;;;;;;;8.23;5.05;;;;;;;3.94;100.00;103184.78;10213028;28;20041;-68
2023/04/03 19:59:02;;;;;;;8.27;4.97;;;;;;;3.73;100.00;103179.63;10228135;28;20442;-68
2023/04/03 20:03:59;;;;;;;9.57;5.03;;;;;;;3.57;100.00;103176.34;10216830;28;20125;-69
2023/04/03 20:08:56;;;;;;;7.43;4.97;;;;;;;3.53;100.00;103177.81;10213534;28;20132;-67
2023/04/03 20:13:54;;;;;;;6.20;5.10;;;;;;;3.25;100.00;103164.50;10216967;28;20050;-68
2023/04/03 20:18:53;;;;;;;7.97;5.35;;;;;;;3.08;100.00;103169.47;10206981;28;20070;-68
2023/04/03 20:23:50;;;;;;;11.77;5.72;;;;;;;3.11;100.00;103171.78;10203724;28;20491;-68
2023/04/03 20:28:47;;;;;;;9.15;5.25;;;;;;;3.04;100.00;103168.25;10205142;28;20045;-67
2023/04/03 20:33:44;;;;;;;4.80;4.30;;;;;;;2.98;100.00;103163.66;10218961;28;20049;-69
2023/04/03 20:38:41;;;;;;;6.82;4.63;;;;;;;2.89;100.00;103164.91;10223635;28;20068;-69
2023/04/03 20:43:38;;;;;;;8.32;5.25;;;;;;;2.74;100.00;103168.63;10210780;28;20484;-69
2023/04/03 20:48:35;;;;;;;8.30;4.60;;;;;;;2.60;100.00;103161.53;10222629;28;20125;-71
2023/04/03 20:53:32;;;;;;;5.90;4.78;;;;;;;2.50;100.00;103161.91;10223358;28;20563;-71
2023/04/03 20:58:31;;;;;;;8.27;5.25;;;;;;;2.41;100.00;103156.91;10217056;28;20069;-71
2023/04/03 21:03:33;;;;;;;10.73;4.90;;;;;;;2.37;100.00;103161.03;10219078;28;20076;-71
2023/04/03 21:09:10;;;;;;;7.35;5.38;;;;;;;2.22;100.00;103158.50;10198865;28;20495;-69
2023/04/03 21:14:45;;;;;;;8.63;5.32;;;;;;;2.15;100.00;103158.47;10215774;28;20073;-69
2023/04/03 21:19:55;;;;;;;6.90;5.05;;;;;;;2.05;100.00;103152.63;10224038;28;20072;-69
2023/04/03 21:24:55;;;;;;;9.82;4.57;;;;;;;2.00;100.00;103157.81;10219313;28;20489;-69
2023/04/03 21:29:58;;;;;;;9.13;4.85;;;;;;;1.91;100.00;103159.81;10222794;28;20120;-69
2023/04/03 21:35:08;;;;;;;12.68;5.35;;;;;;;1.81;100.00;103154.81;10224703;28;20060;-69
2023/04/03 21:40:11;;;;;;;8.68;4.43;;;;;;;1.82;100.00;103159.16;10209247;28;20053;-69
2023/04/03 21:45:14;;;;;;;8.23;4.90;;;;;;;1.78;100.00;103162.44;10219844;28;20171;-70
2023/04/03 21:50:14;;;;;;;11.93;5.20;;;;;;;1.66;100.00;103154.06;10243922;28;20054;-71
2023/04/03 21:55:14;;;;;;;10.87;5.70;;;;;;;1.59;100.00;103153.22;10218104;28;20049;-69
2023/04/03 22:00:17;;;;;;;6.88;4.57;;;;;;;1.50;100.00;103146.31;10226014;28;20037;-69
2023/04/03 22:05:20;;;;;;;9.65;4.10;;;;;;;1.40;100.00;103144.78;10219611;28;20046;-69
2023/04/03 22:10:19;;;;;;;13.10;4.45;;;;;;;1.27;100.00;103139.28;10231706;28;20056;-70
2023/04/03 22:15:19;;;;;;;5.95;4.60;;;;;;;1.29;100.00;103142.63;10218595;28;20136;-70
2023/04/03 22:20:18;;;;;;;7.80;4.07;;;;;;;1.30;100.00;103144.31;10221551;28;20176;-70
2023/04/03 22:25:19;;;;;;;7.95;4.65;;;;;;;1.19;100.00;103142.16;10241484;28;20115;-70
2023/04/03 22:30:23;;;;;;;6.20;4.05;;;;;;;1.17;100.00;103138.81;10220280;28;20061;-69
2023/04/03 22:35:26;;;;;;;6.65;3.95;;;;;;;1.12;100.00;103136.69;10224627;28;20049;-68
2023/04/03 22:40:27;;;;;;;6.63;4.50;;;;;;;1.01;100.00;103129.97;10225619;28;20045;-68
2023/04/03 22:45:24;;;;;;;8.00;4.10;;;;;;;0.96;100.00;103126.22;10223007;28;20074;-71
2023/04/03 22:50:26;;;;;;;7.22;4.00;;;;;;;0.92;100.00;103131.13;10228152;28;20075;-68
2023/04/03 22:55:37;;;;;;;6.30;3.92;;;;;;;0.76;100.00;103136.78;10222530;28;20455;-69
2023/04/03 23:00:44;;;;;;;6.75;4.22;;;;;;;0.78;100.00;103140.94;10242307;28;20043;-71